createdAt,value
2023-02-22T00:02:25.768Z,100.00
2023-02-22T00:05:17.525Z,100.00
2023-02-22T00:08:09.880Z,100.00
2023-02-22T00:10:39.758Z,100.00
2023-02-22T00:13:48.657Z,100.00
2023-02-22T00:16:17.451Z,100.00
2023-02-22T00:18:57.968Z,100.00
2023-02-22T00:21:26.843Z,100.00
2023-02-22T00:24:42.989Z,100.00
2023-02-22T00:27:42.852Z,100.00
2023-02-22T00:30:13.920Z,99.85
2023-02-22T00:33:06.549Z,100.00
2023-02-22T00:36:07.015Z,100.00
2023-02-22T00:38:55.937Z,100.00
2023-02-22T00:41:47.867Z,100.00
2023-02-22T00:44:44.272Z,100.00
2023-02-22T00:47:21.341Z,100.00
2023-02-22T00:49:55.501Z,100.00
2023-02-22T00:52:44.866Z,100.00
2023-02-22T00:55:33.464Z,100.00
2023-02-22T00:58:25.551Z,100.00
2023-02-22T01:01:16.597Z,100.00
2023-02-22T01:03:49.239Z,100.00
2023-02-22T01:06:55.313Z,100.00
2023-02-22T01:09:51.951Z,100.00
2023-02-22T01:12:43.591Z,100.00
2023-02-22T01:15:31.711Z,100.00
2023-02-22T01:18:00.748Z,100.00
2023-02-22T01:20:36.820Z,100.00
2023-02-22T01:23:25.575Z,100.00
2023-02-22T01:26:18.580Z,100.00
2023-02-22T01:29:23.412Z,100.00
2023-02-22T01:31:55.981Z,100.00
2023-02-22T01:34:25.881Z,100.00
2023-02-22T01:37:14.904Z,100.00
2023-02-22T01:40:23.817Z,100.00
2023-02-22T01:43:31.784Z,100.00
2023-02-22T01:46:27.996Z,100.00
2023-02-22T01:49:26.575Z,100.00
2023-02-22T01:52:18.830Z,100.00
2023-02-22T01:55:10.683Z,100.00
2023-02-22T01:57:46.503Z,100.00
2023-02-22T02:00:19.292Z,100.00
2023-02-22T02:02:51.702Z,100.00
2023-02-22T02:05:59.531Z,100.00
2023-02-22T02:09:27.658Z,100.00
2023-02-22T02:12:39.200Z,100.00
2023-02-22T02:15:47.153Z,100.00
2023-02-22T02:18:36.116Z,100.00
2023-02-22T02:21:45.123Z,100.00
2023-02-22T02:24:37.351Z,100.00
2023-02-22T02:27:45.661Z,100.00
2023-02-22T02:30:54.778Z,100.00
2023-02-22T02:34:22.773Z,100.00
2023-02-22T02:37:31.237Z,100.00
2023-02-22T02:40:39.727Z,100.00
2023-02-22T02:43:31.492Z,100.00
2023-02-22T02:46:01.901Z,100.00
2023-02-22T02:49:05.938Z,100.00
2023-02-22T02:51:54.671Z,100.00
2023-02-22T02:55:03.219Z,100.00
2023-02-22T02:58:26.831Z,100.00
2023-02-22T03:01:16.186Z,100.00
2023-02-22T03:04:06.182Z,100.00
2023-02-22T03:06:44.820Z,100.00
2023-02-22T03:09:41.123Z,100.00
2023-02-22T03:12:30.550Z,100.00
2023-02-22T03:15:11.404Z,100.00
2023-02-22T03:18:03.661Z,100.00
2023-02-22T03:21:09.613Z,100.00
2023-02-22T03:23:56.134Z,100.00
2023-02-22T03:26:46.290Z,100.00
2023-02-22T03:29:54.472Z,100.00
2023-02-22T03:32:42.883Z,100.00
2023-02-22T03:35:19.288Z,100.00
2023-02-22T03:38:28.353Z,100.00
2023-02-22T03:40:57.569Z,100.00
2023-02-22T03:43:47.745Z,100.00
2023-02-22T03:46:56.803Z,100.00
2023-02-22T03:49:49.482Z,100.00
2023-02-22T03:52:42.467Z,100.00
2023-02-22T03:55:36.026Z,100.00
2023-02-22T03:58:14.307Z,100.00
2023-02-22T04:01:23.912Z,100.00
2023-02-22T04:04:48.027Z,100.00
2023-02-22T04:07:25.016Z,100.00
2023-02-22T04:10:52.816Z,100.00
2023-02-22T04:13:44.467Z,100.00
2023-02-22T04:16:17.382Z,100.00
2023-02-22T04:19:07.687Z,100.00
2023-02-22T04:22:14.669Z,100.00
2023-02-22T04:24:43.258Z,100.00
2023-02-22T04:27:32.074Z,100.00
2023-02-22T04:31:00.059Z,100.00
2023-02-22T04:34:08.692Z,100.00
2023-02-22T04:36:47.998Z,100.00
2023-02-22T04:39:38.830Z,100.00
2023-02-22T04:42:47.046Z,100.00
2023-02-22T04:45:34.809Z,100.00
2023-02-22T04:48:31.599Z,100.00
2023-02-22T04:51:42.996Z,100.00
2023-02-22T04:54:51.645Z,100.00
2023-02-22T04:57:40.203Z,100.00
2023-02-22T05:00:45.403Z,100.00
2023-02-22T05:03:49.530Z,100.00
2023-02-22T05:06:41.383Z,100.00
2023-02-22T05:09:47.644Z,100.00
2023-02-22T05:12:21.717Z,100.00
2023-02-22T05:15:11.484Z,100.00
2023-02-22T05:18:00.045Z,100.00
2023-02-22T05:20:48.474Z,100.00
2023-02-22T05:23:37.655Z,100.00
2023-02-22T05:26:28.946Z,100.00
2023-02-22T05:29:01.427Z,100.00
2023-02-22T05:31:49.554Z,100.00
2023-02-22T05:34:19.554Z,100.00
2023-02-22T05:36:52.689Z,100.00
2023-02-22T05:39:49.349Z,100.00
2023-02-22T05:42:43.178Z,100.00
2023-02-22T05:45:11.773Z,100.00
2023-02-22T05:48:39.547Z,100.00
2023-02-22T05:51:18.304Z,100.00
2023-02-22T05:54:07.164Z,100.00
2023-02-22T05:56:51.674Z,100.00
2023-02-22T05:59:40.579Z,100.00
2023-02-22T06:03:03.737Z,100.00
2023-02-22T06:05:41.186Z,100.00
2023-02-22T06:08:33.022Z,100.00
2023-02-22T06:11:06.794Z,100.00
2023-02-22T06:13:51.451Z,100.00
2023-02-22T06:16:39.650Z,100.00
2023-02-22T06:19:19.992Z,100.00
2023-02-22T06:21:56.223Z,100.00
2023-02-22T06:25:04.494Z,100.00
2023-02-22T06:28:20.051Z,100.00
2023-02-22T06:31:36.177Z,100.00
2023-02-22T06:34:25.776Z,100.00
2023-02-22T06:36:55.986Z,100.00
2023-02-22T06:39:25.961Z,100.00
2023-02-22T06:42:49.359Z,100.00
2023-02-22T06:45:37.283Z,100.00
2023-02-22T06:48:33.707Z,100.00
2023-02-22T06:51:37.720Z,100.00
2023-02-22T06:54:46.795Z,100.00
2023-02-22T06:57:36.713Z,100.00
2023-02-22T07:00:10.369Z,100.00
2023-02-22T07:03:05.654Z,100.00
2023-02-22T07:05:56.355Z,100.00
2023-02-22T07:09:08.078Z,100.00
2023-02-22T07:12:12.480Z,100.00
2023-02-22T07:15:00.650Z,100.00
2023-02-22T07:17:40.704Z,100.00
2023-02-22T07:20:31.142Z,100.00
2023-02-22T07:23:59.015Z,100.00
2023-02-22T07:26:27.192Z,100.00
2023-02-22T07:29:05.216Z,100.00
2023-02-22T07:32:14.014Z,100.00
2023-02-22T07:34:47.020Z,100.00
2023-02-22T07:37:15.033Z,100.00
2023-02-22T07:40:23.106Z,100.00
2023-02-22T07:43:11.375Z,100.00
2023-02-22T07:46:22.434Z,100.00
2023-02-22T07:49:13.242Z,100.00
2023-02-22T07:51:57.087Z,100.00
2023-02-22T07:54:49.933Z,100.00
2023-02-22T07:57:38.164Z,100.00
2023-02-22T08:00:28.797Z,100.00
2023-02-22T08:03:37.046Z,100.00
2023-02-22T08:06:26.277Z,100.00
2023-02-22T08:09:02.381Z,100.00
2023-02-22T08:11:38.307Z,100.00
2023-02-22T08:14:30.661Z,100.00
2023-02-22T08:17:22.249Z,100.00
2023-02-22T08:19:59.846Z,100.00
2023-02-22T08:22:43.932Z,100.00
2023-02-22T08:25:52.570Z,100.00
2023-02-22T08:28:41.844Z,100.00
2023-02-22T08:31:50.536Z,100.00
2023-02-22T08:34:39.617Z,100.00
2023-02-22T08:37:30.572Z,100.00
2023-02-22T08:40:18.931Z,100.00
2023-02-22T08:43:28.815Z,100.00
2023-02-22T08:46:18.096Z,100.00
2023-02-22T08:49:27.012Z,100.00
2023-02-22T08:52:22.452Z,100.00
2023-02-22T08:55:50.185Z,100.00
2023-02-22T08:58:39.002Z,100.00
2023-02-22T09:01:33.368Z,100.00
2023-02-22T09:04:44.969Z,100.00
2023-02-22T09:07:51.051Z,100.00
2023-02-22T09:10:40.821Z,100.00
2023-02-22T09:13:30.742Z,100.00
2023-02-22T09:16:06.362Z,99.72
2023-02-22T09:18:52.048Z,98.65
2023-02-22T09:21:38.450Z,96.12
2023-02-22T09:24:28.130Z,95.86
2023-02-22T09:26:58.839Z,94.82
2023-02-22T09:29:54.593Z,96.76
2023-02-22T09:33:00.320Z,91.66
2023-02-22T09:35:56.077Z,93.77
2023-02-22T09:38:29.719Z,91.63
2023-02-22T09:41:03.905Z,89.54
2023-02-22T09:43:32.971Z,90.26
2023-02-22T09:46:23.045Z,88.86
2023-02-22T09:48:59.625Z,88.83
2023-02-22T09:51:30.022Z,86.95
2023-02-22T09:54:00.653Z,85.62
2023-02-22T09:56:31.543Z,85.62
2023-02-22T09:59:15.148Z,85.79
2023-02-22T10:01:43.777Z,83.71
2023-02-22T10:04:16.396Z,82.17
2023-02-22T10:07:20.371Z,81.29
2023-02-22T10:10:12.299Z,81.62
2023-02-22T10:13:00.185Z,80.06
2023-02-22T10:15:49.066Z,80.13
2023-02-22T10:18:19.014Z,78.48
2023-02-22T10:21:08.665Z,77.44
2023-02-22T10:23:41.477Z,77.78
2023-02-22T10:26:37.576Z,76.16
2023-02-22T10:29:31.171Z,74.79
2023-02-22T10:32:20.148Z,75.22
2023-02-22T10:34:50.823Z,73.82
2023-02-22T10:38:03.014Z,74.56
2023-02-22T10:40:36.613Z,73.95
2023-02-22T10:43:13.774Z,73.62
2023-02-22T10:46:09.736Z,74.24
2023-02-22T10:48:58.309Z,72.66
2023-02-22T10:52:03.750Z,72.37
2023-02-22T10:54:52.617Z,71.90
2023-02-22T10:57:53.135Z,71.23
2023-02-22T11:00:22.454Z,71.29
2023-02-22T11:02:50.279Z,72.37
2023-02-22T11:05:36.537Z,70.57
2023-02-22T11:08:11.239Z,70.37
2023-02-22T11:11:00.515Z,69.55
2023-02-22T11:13:38.045Z,69.89
2023-02-22T11:16:35.821Z,69.36
2023-02-22T11:19:12.669Z,69.41
2023-02-22T11:22:02.396Z,68.40
2023-02-22T11:24:48.649Z,68.66
2023-02-22T11:27:37.827Z,68.43
2023-02-22T11:30:09.140Z,67.18
2023-02-22T11:32:59.338Z,67.00
2023-02-22T11:35:55.668Z,66.10
2023-02-22T11:38:26.517Z,64.27
2023-02-22T11:41:18.919Z,64.13
2023-02-22T11:43:47.476Z,61.05
2023-02-22T11:46:27.749Z,60.72
2023-02-22T11:49:00.024Z,59.66
2023-02-22T11:51:30.016Z,59.69
2023-02-22T11:54:07.066Z,60.13
2023-02-22T11:56:38.374Z,61.20
2023-02-22T11:59:11.334Z,61.30
2023-02-22T12:01:42.114Z,61.12
2023-02-22T12:04:13.378Z,61.36
2023-02-22T12:06:43.634Z,61.99
2023-02-22T12:09:37.389Z,61.95
2023-02-22T12:12:21.551Z,62.11
2023-02-22T12:15:09.368Z,62.29
2023-02-22T12:17:59.810Z,62.36
2023-02-22T12:20:37.196Z,62.11
2023-02-22T12:23:28.034Z,61.95
2023-02-22T12:26:03.874Z,61.19
2023-02-22T12:28:59.932Z,59.48
2023-02-22T12:31:29.990Z,58.84
2023-02-22T12:34:01.122Z,59.09
2023-02-22T12:36:29.787Z,60.80
2023-02-22T12:38:58.610Z,60.03
2023-02-22T12:41:28.371Z,60.59
2023-02-22T12:43:57.738Z,60.91
2023-02-22T12:46:27.547Z,60.89
2023-02-22T12:48:57.286Z,61.17
2023-02-22T12:51:26.314Z,61.83
2023-02-22T12:54:17.921Z,61.94
2023-02-22T12:56:48.630Z,61.18
2023-02-22T12:59:16.847Z,62.39
2023-02-22T13:02:07.141Z,62.11
2023-02-22T13:04:35.353Z,62.50
2023-02-22T13:07:04.289Z,62.77
2023-02-22T13:09:50.479Z,62.79
2023-02-22T13:12:19.953Z,62.63
2023-02-22T13:14:49.148Z,62.40
2023-02-22T13:17:19.350Z,62.57
2023-02-22T13:20:08.046Z,63.15
2023-02-22T13:22:58.031Z,63.51
2023-02-22T13:25:41.769Z,62.26
2023-02-22T13:28:15.821Z,61.70
2023-02-22T13:30:44.543Z,62.12
2023-02-22T13:33:13.470Z,61.77
2023-02-22T13:35:56.208Z,61.38
2023-02-22T13:38:45.043Z,61.82
2023-02-22T13:41:17.162Z,62.23
2023-02-22T13:43:47.476Z,63.10
2023-02-22T13:46:21.142Z,63.12
2023-02-22T13:48:50.715Z,63.07
2023-02-22T13:51:19.599Z,62.86
2023-02-22T13:53:49.275Z,62.82
2023-02-22T13:56:43.483Z,63.17
2023-02-22T13:59:27.390Z,63.46
2023-02-22T14:02:05.457Z,63.26
2023-02-22T14:04:35.807Z,63.49
2023-02-22T14:07:15.366Z,65.00
2023-02-22T14:09:45.406Z,64.57
2023-02-22T14:12:13.122Z,63.28
2023-02-22T14:14:42.078Z,60.73
2023-02-22T14:17:18.487Z,58.95
2023-02-22T14:19:47.775Z,57.88
2023-02-22T14:22:16.796Z,56.08
2023-02-22T14:24:45.832Z,55.92
2023-02-22T14:27:15.937Z,56.24
2023-02-22T14:29:44.484Z,56.96
2023-02-22T14:32:13.464Z,58.20
2023-02-22T14:34:42.185Z,58.79
2023-02-22T14:37:11.413Z,58.93
2023-02-22T14:39:41.780Z,60.43
2023-02-22T14:42:11.300Z,61.13
2023-02-22T14:44:40.939Z,62.36
2023-02-22T14:47:10.601Z,63.77
2023-02-22T14:49:39.288Z,64.58
2023-02-22T14:52:08.332Z,64.70
2023-02-22T14:54:37.465Z,63.87
2023-02-22T14:57:05.353Z,62.67
2023-02-22T14:59:34.023Z,61.01
2023-02-22T15:02:11.320Z,60.68
2023-02-22T15:04:39.983Z,59.99
2023-02-22T15:07:08.979Z,59.93
2023-02-22T15:09:39.118Z,60.14
2023-02-22T15:12:07.063Z,61.27
2023-02-22T15:14:56.856Z,61.69
2023-02-22T15:18:09.093Z,59.83
2023-02-22T15:20:43.284Z,58.27
2023-02-22T15:23:14.737Z,56.60
2023-02-22T15:25:44.537Z,55.70
2023-02-22T15:28:17.338Z,55.52
2023-02-22T15:30:58.644Z,55.31
2023-02-22T15:33:47.271Z,55.43
2023-02-22T15:36:17.031Z,55.54
2023-02-22T15:38:47.368Z,55.49
2023-02-22T15:41:16.827Z,55.81
2023-02-22T15:43:49.360Z,56.42
2023-02-22T15:46:21.685Z,56.89
2023-02-22T15:49:05.991Z,58.07
2023-02-22T15:51:35.215Z,60.45
2023-02-22T15:54:07.921Z,61.22
2023-02-22T15:56:39.506Z,62.30
2023-02-22T15:59:31.586Z,64.08
2023-02-22T16:02:12.350Z,65.71
2023-02-22T16:04:48.519Z,66.90
2023-02-22T16:08:09.235Z,68.60
2023-02-22T16:10:53.270Z,70.14
2023-02-22T16:13:38.246Z,70.58
2023-02-22T16:16:27.030Z,71.02
2023-02-22T16:19:04.538Z,71.89
2023-02-22T16:21:52.477Z,73.20
2023-02-22T16:24:28.996Z,75.41
2023-02-22T16:27:16.832Z,75.93
2023-02-22T16:29:47.677Z,76.39
2023-02-22T16:32:33.359Z,76.94
2023-02-22T16:35:01.186Z,77.42
2023-02-22T16:37:36.581Z,78.23
2023-02-22T16:40:05.965Z,79.25
2023-02-22T16:42:39.136Z,78.43
2023-02-22T16:45:29.138Z,78.88
2023-02-22T16:48:14.569Z,80.27
2023-02-22T16:51:05.115Z,80.10
2023-02-22T16:53:57.985Z,79.74
2023-02-22T16:56:29.642Z,80.51
2023-02-22T16:59:00.908Z,82.16
2023-02-22T17:02:03.954Z,83.04
2023-02-22T17:04:34.137Z,83.70
2023-02-22T17:07:11.387Z,84.55
2023-02-22T17:10:02.183Z,84.47
2023-02-22T17:12:45.978Z,84.99
2023-02-22T17:15:25.002Z,85.57
2023-02-22T17:18:36.621Z,86.23
2023-02-22T17:21:07.433Z,86.53
2023-02-22T17:23:51.575Z,87.66
2023-02-22T17:26:59.392Z,90.06
2023-02-22T17:30:03.537Z,90.81
2023-02-22T17:32:55.477Z,90.97
2023-02-22T17:35:44.329Z,90.63
2023-02-22T17:38:20.780Z,92.46
2023-02-22T17:41:09.379Z,95.00
2023-02-22T17:43:59.342Z,97.65
2023-02-22T17:47:09.333Z,98.02
2023-02-22T17:49:57.320Z,98.74
2023-02-22T17:53:07.379Z,99.89
2023-02-22T17:55:55.563Z,99.46
2023-02-22T17:59:11.645Z,99.58
2023-02-22T18:01:40.541Z,100.00
2023-02-22T18:04:30.296Z,100.00
2023-02-22T18:07:19.196Z,100.00
2023-02-22T18:10:08.118Z,100.00
2023-02-22T18:13:19.715Z,100.00
2023-02-22T18:16:27.736Z,100.00
2023-02-22T18:19:23.649Z,100.00
2023-02-22T18:21:56.119Z,100.00
2023-02-22T18:24:32.381Z,100.00
2023-02-22T18:27:41.876Z,100.00
2023-02-22T18:30:11.632Z,100.00
2023-02-22T18:32:41.816Z,100.00
2023-02-22T18:35:51.831Z,100.00
2023-02-22T18:38:35.969Z,100.00
2023-02-22T18:41:05.157Z,100.00
2023-02-22T18:44:06.475Z,100.00
2023-02-22T18:46:59.272Z,100.00
2023-02-22T18:49:31.496Z,100.00
2023-02-22T18:52:25.304Z,100.00
2023-02-22T18:55:13.549Z,100.00
2023-02-22T18:58:23.406Z,100.00
2023-02-22T19:01:31.278Z,100.00
2023-02-22T19:04:20.355Z,100.00
2023-02-22T19:07:05.070Z,100.00
2023-02-22T19:09:45.912Z,100.00
2023-02-22T19:12:54.222Z,100.00
2023-02-22T19:15:24.681Z,100.00
2023-02-22T19:18:36.680Z,100.00
2023-02-22T19:21:25.460Z,100.00
2023-02-22T19:24:34.091Z,100.00
2023-02-22T19:27:24.515Z,100.00
2023-02-22T19:30:32.591Z,100.00
2023-02-22T19:33:01.223Z,100.00
2023-02-22T19:35:50.858Z,100.00
2023-02-22T19:38:20.158Z,100.00
2023-02-22T19:41:10.237Z,100.00
2023-02-22T19:44:00.533Z,100.00
2023-02-22T19:46:56.586Z,100.00
2023-02-22T19:49:48.435Z,100.00
2023-02-22T19:52:56.282Z,100.00
2023-02-22T19:56:05.718Z,100.00
2023-02-22T19:59:29.076Z,100.00
2023-02-22T20:02:19.982Z,100.00
2023-02-22T20:05:31.715Z,100.00
2023-02-22T20:08:00.872Z,100.00
2023-02-22T20:10:28.918Z,100.00
2023-02-22T20:13:52.291Z,100.00
2023-02-22T20:16:20.623Z,100.00
2023-02-22T20:19:36.534Z,100.00
2023-02-22T20:22:10.085Z,100.00
2023-02-22T20:24:50.048Z,100.00
2023-02-22T20:27:33.682Z,100.00
2023-02-22T20:30:41.571Z,100.00
2023-02-22T20:33:37.567Z,100.00
2023-02-22T20:36:42.309Z,100.00
2023-02-22T20:39:31.493Z,100.00
2023-02-22T20:42:35.030Z,100.00
2023-02-22T20:45:04.072Z,100.00
2023-02-22T20:48:15.765Z,100.00
2023-02-22T20:50:45.321Z,100.00
2023-02-22T20:53:37.158Z,100.00
2023-02-22T20:56:53.288Z,100.00
2023-02-22T20:59:51.392Z,100.00
2023-02-22T21:02:59.574Z,100.00
2023-02-22T21:05:55.638Z,100.00
2023-02-22T21:08:25.781Z,100.00
2023-02-22T21:11:14.782Z,100.00
2023-02-22T21:13:42.896Z,100.00
2023-02-22T21:16:30.747Z,100.00
2023-02-22T21:19:54.179Z,100.00
2023-02-22T21:22:43.414Z,100.00
2023-02-22T21:25:51.930Z,100.00
2023-02-22T21:29:19.902Z,100.00
2023-02-22T21:32:29.837Z,100.00
2023-02-22T21:35:14.417Z,100.00
2023-02-22T21:38:06.202Z,100.00
2023-02-22T21:41:14.971Z,100.00
2023-02-22T21:43:43.953Z,100.00
2023-02-22T21:46:34.971Z,100.00
2023-02-22T21:49:25.430Z,100.00
2023-02-22T21:51:53.344Z,100.00
2023-02-22T21:54:56.259Z,100.00
2023-02-22T21:58:00.180Z,100.00
2023-02-22T22:01:09.089Z,100.00
2023-02-22T22:04:32.645Z,100.00
2023-02-22T22:07:20.108Z,100.00
2023-02-22T22:10:09.465Z,100.00
2023-02-22T22:12:54.346Z,100.00
2023-02-22T22:15:43.343Z,100.00
2023-02-22T22:18:59.091Z,100.00
2023-02-22T22:22:11.001Z,100.00
2023-02-22T22:25:00.729Z,100.00
2023-02-22T22:27:38.571Z,100.00
2023-02-22T22:30:47.476Z,100.00
2023-02-22T22:33:55.921Z,100.00
2023-02-22T22:36:44.488Z,100.00
2023-02-22T22:39:17.131Z,100.00
2023-02-22T22:42:04.952Z,100.00
2023-02-22T22:45:16.795Z,100.00
2023-02-22T22:48:24.891Z,100.00
2023-02-22T22:51:13.912Z,100.00
2023-02-22T22:54:01.859Z,100.00
2023-02-22T22:56:51.125Z,100.00
2023-02-22T22:59:27.987Z,100.00
2023-02-22T23:02:43.682Z,100.00
2023-02-22T23:05:33.667Z,100.00
2023-02-22T23:08:49.736Z,100.00
2023-02-22T23:12:00.314Z,100.00
2023-02-22T23:14:49.803Z,100.00
2023-02-22T23:17:38.508Z,100.00
2023-02-22T23:20:24.357Z,100.00
2023-02-22T23:23:33.331Z,100.00
2023-02-22T23:26:41.844Z,100.00
2023-02-22T23:29:30.603Z,100.00
2023-02-22T23:32:19.057Z,100.00
2023-02-22T23:34:55.086Z,100.00
2023-02-22T23:37:36.500Z,100.00
2023-02-22T23:40:40.824Z,100.00
2023-02-22T23:43:34.546Z,100.00
2023-02-22T23:46:25.097Z,100.00
2023-02-22T23:48:59.465Z,100.00
2023-02-22T23:51:52.264Z,100.00
2023-02-22T23:54:58.428Z,100.00
2023-02-22T23:58:26.261Z,100.00
